NQI weather

Kingsville Naval Air Station
Kingsville, Texas, United States

Public forecast

Using degrees Fahrenheit for public forecast. Weather courtesy of forecast.io.

Current aviation weather report (METAR) for Kingsville Naval Air Station

Retrieved 2019/12/09 00:56 UTC (56 minutes ago):

KNQI 090056Z 14008KT 10SM SCT040 BKN250 22/18 A2991 RMK AO2 SLP126 T02170183

Aviation forecast (TAF) for Kingsville Naval Air Station

Forecast is more than 12 hours old.

Retrieved 2013/09/17 15:21 UTC (6 years ago):

TAF COR KNQI 171500Z 1715/1815 08010KT VCSH SCT025CB SCT045 BKN250 QNH2994INS TEMPO 1715/1719 VRB15G25KT 4800 -SHRA BKN020CB BECMG 1718/1719 09012G18KT VCSH SCT035CB SCT055 BKN250 QNH2989INS TEMPO 1719/1723 VRB15G25KT 3200 SHRA BKN015CB OVC055 BECMG 1722/1723 10014G20KT 9999 NSW SCT035 SCT060 BKN250 QNH2990INS BECMG 1803/1805 VRB06KT 9999 FEW020 SCT040 QNH2993INS TEMPO 1810/1814 4800 BR BKN015 T32/1719Z T24/1811Z COR 1517